createdAt,value
2019-05-23T00:00:41.508Z,12.70
2019-05-23T00:03:11.763Z,12.60
2019-05-23T00:05:45.322Z,12.60
2019-05-23T00:08:18.677Z,12.60
2019-05-23T00:11:22.545Z,12.60
2019-05-23T00:13:58.041Z,12.70
2019-05-23T00:16:28.649Z,12.60
2019-05-23T00:18:58.984Z,12.50
2019-05-23T00:21:28.784Z,12.50
2019-05-23T00:24:00.509Z,12.50
2019-05-23T00:26:31.488Z,12.50
2019-05-23T00:29:10.040Z,12.50
2019-05-23T00:31:39.805Z,12.40
2019-05-23T00:34:11.624Z,12.50
2019-05-23T00:36:41.976Z,12.40
2019-05-23T00:39:13.847Z,12.50
2019-05-23T00:41:44.794Z,12.50
2019-05-23T00:44:14.410Z,12.50
2019-05-23T00:46:44.879Z,12.50
2019-05-23T00:49:15.996Z,12.50
2019-05-23T00:51:46.407Z,12.40
2019-05-23T00:54:16.900Z,12.50
2019-05-23T00:56:46.146Z,12.40
2019-05-23T00:59:26.562Z,12.50
2019-05-23T01:01:49.215Z,12.50
2019-05-23T01:04:19.078Z,12.50
2019-05-23T01:06:49.738Z,12.50
2019-05-23T01:09:21.443Z,12.50
2019-05-23T01:11:50.709Z,12.50
2019-05-23T01:14:20.335Z,12.40
2019-05-23T01:16:49.541Z,12.40
2019-05-23T01:19:19.227Z,12.40
2019-05-23T01:22:03.486Z,12.40
2019-05-23T01:24:50.579Z,12.40
2019-05-23T01:27:19.729Z,12.40
2019-05-23T01:29:51.414Z,12.40
2019-05-23T01:32:26.374Z,12.50
2019-05-23T01:34:56.745Z,12.40
2019-05-23T01:37:26.785Z,12.40
2019-05-23T01:39:56.642Z,12.30
2019-05-23T01:42:26.834Z,12.40
2019-05-23T01:44:58.117Z,12.40
2019-05-23T01:47:29.362Z,12.30
2019-05-23T01:49:58.966Z,12.30
2019-05-23T01:52:30.002Z,12.40
2019-05-23T01:55:00.621Z,12.40
2019-05-23T01:57:30.556Z,12.40
2019-05-23T02:00:10.181Z,12.40
2019-05-23T02:02:32.654Z,12.30
2019-05-23T02:05:02.606Z,12.40
2019-05-23T02:07:32.074Z,12.30
2019-05-23T02:10:02.745Z,12.40
2019-05-23T02:12:33.934Z,12.40
2019-05-23T02:15:03.804Z,12.30
2019-05-23T02:17:33.964Z,12.40
2019-05-23T02:20:03.479Z,12.30
2019-05-23T02:22:33.447Z,12.30
2019-05-23T02:25:04.660Z,12.30
2019-05-23T02:27:34.033Z,12.30
2019-05-23T02:30:04.373Z,12.30
2019-05-23T02:32:34.381Z,12.30
2019-05-23T02:35:04.655Z,12.30
2019-05-23T02:37:59.645Z,12.30
2019-05-23T02:40:36.997Z,12.20
2019-05-23T02:43:06.916Z,12.30
2019-05-23T02:45:39.789Z,12.30
2019-05-23T02:48:14.024Z,12.20
2019-05-23T02:50:50.369Z,12.20
2019-05-23T02:53:19.896Z,12.30
2019-05-23T02:55:49.465Z,12.30
2019-05-23T02:58:52.397Z,12.30
2019-05-23T03:01:44.579Z,12.30
2019-05-23T03:04:18.081Z,12.30
2019-05-23T03:06:48.284Z,12.30
2019-05-23T03:09:19.399Z,12.20
2019-05-23T03:11:50.061Z,12.20
2019-05-23T03:14:19.850Z,12.20
2019-05-23T03:16:51.914Z,12.20
2019-05-23T03:19:37.033Z,12.20
2019-05-23T03:22:28.567Z,12.20
2019-05-23T03:25:00.737Z,12.20
2019-05-23T03:27:30.498Z,12.10
2019-05-23T03:30:01.000Z,12.10
2019-05-23T03:33:04.335Z,12.10
2019-05-23T03:35:41.037Z,12.10
2019-05-23T03:38:11.268Z,12.10
2019-05-23T03:40:41.270Z,12.10
2019-05-23T03:43:11.838Z,12.10
2019-05-23T03:45:45.552Z,12.00
2019-05-23T03:48:15.935Z,12.00
2019-05-23T03:50:47.167Z,12.10
2019-05-23T03:53:17.438Z,12.10
2019-05-23T03:55:48.770Z,12.10
2019-05-23T03:58:18.843Z,12.10
2019-05-23T04:00:53.008Z,12.10
2019-05-23T04:03:24.400Z,12.10
2019-05-23T04:05:54.851Z,12.00
2019-05-23T04:08:24.592Z,12.10
2019-05-23T04:10:53.877Z,11.90
2019-05-23T04:13:24.189Z,11.90
2019-05-23T04:15:53.530Z,12.00
2019-05-23T04:18:24.109Z,12.00
2019-05-23T04:20:54.273Z,12.00
2019-05-23T04:23:24.650Z,12.00
2019-05-23T04:25:54.531Z,12.00
2019-05-23T04:28:24.037Z,12.00
2019-05-23T04:30:54.084Z,12.00
2019-05-23T04:33:23.675Z,12.00
2019-05-23T04:35:53.713Z,12.00
2019-05-23T04:38:23.304Z,12.00
2019-05-23T04:40:52.557Z,12.00
2019-05-23T04:43:22.190Z,12.00
2019-05-23T04:45:52.510Z,11.90
2019-05-23T04:48:22.044Z,11.90
2019-05-23T04:50:52.666Z,11.90
2019-05-23T04:53:22.592Z,11.90
2019-05-23T04:55:53.379Z,11.90
2019-05-23T04:58:23.068Z,11.90
2019-05-23T05:00:52.676Z,11.80
2019-05-23T05:03:22.272Z,11.90
2019-05-23T05:05:51.996Z,11.90
2019-05-23T05:08:21.732Z,11.90
2019-05-23T05:10:51.950Z,11.90
2019-05-23T05:13:21.721Z,11.90
2019-05-23T05:15:51.774Z,11.80
2019-05-23T05:18:22.081Z,11.80
2019-05-23T05:20:52.420Z,11.70
2019-05-23T05:23:22.968Z,11.80
2019-05-23T05:25:52.667Z,11.90
2019-05-23T05:28:22.365Z,11.80
2019-05-23T05:30:52.997Z,11.80
2019-05-23T05:33:23.593Z,11.70
2019-05-23T05:35:53.729Z,11.80
2019-05-23T05:38:24.091Z,11.80
2019-05-23T05:40:53.477Z,11.80
2019-05-23T05:43:24.214Z,11.80
2019-05-23T05:45:53.857Z,11.80
2019-05-23T05:48:24.121Z,11.80
2019-05-23T05:50:53.931Z,11.80
2019-05-23T05:53:23.364Z,11.80
2019-05-23T05:55:53.274Z,11.70
2019-05-23T05:58:23.606Z,11.70
2019-05-23T06:01:00.853Z,11.70
2019-05-23T06:03:30.198Z,11.80
2019-05-23T06:06:27.809Z,11.70
2019-05-23T06:08:59.609Z,11.70
2019-05-23T06:11:29.731Z,11.80
2019-05-23T06:13:59.702Z,11.80
2019-05-23T06:16:29.536Z,11.70
2019-05-23T06:18:58.942Z,11.70
2019-05-23T06:21:30.922Z,11.80
2019-05-23T06:24:01.128Z,11.70
2019-05-23T06:26:31.467Z,11.90
2019-05-23T06:29:01.577Z,11.80
2019-05-23T06:31:32.002Z,11.80
2019-05-23T06:34:02.456Z,11.80
2019-05-23T06:36:33.428Z,11.80
2019-05-23T06:39:04.576Z,11.80
2019-05-23T06:41:34.902Z,11.90
2019-05-23T06:44:05.404Z,11.90
2019-05-23T06:46:35.290Z,11.90
2019-05-23T06:49:04.909Z,11.90
2019-05-23T06:51:34.517Z,11.80
2019-05-23T06:54:04.948Z,11.80
2019-05-23T06:56:34.943Z,11.70
2019-05-23T06:59:04.871Z,11.70
2019-05-23T07:01:35.488Z,11.80
2019-05-23T07:04:05.299Z,11.90
2019-05-23T07:06:35.688Z,11.90
2019-05-23T07:09:11.029Z,11.90
2019-05-23T07:11:40.385Z,11.90
2019-05-23T07:14:10.112Z,11.90
2019-05-23T07:16:39.891Z,12.00
2019-05-23T07:19:09.966Z,12.00
2019-05-23T07:21:40.044Z,12.00
2019-05-23T07:24:10.144Z,12.00
2019-05-23T07:26:39.420Z,12.00
2019-05-23T07:29:08.764Z,12.00
2019-05-23T07:31:38.627Z,12.00
2019-05-23T07:34:08.357Z,12.10
2019-05-23T07:36:38.354Z,12.00
2019-05-23T07:39:11.505Z,12.00
2019-05-23T07:41:40.942Z,12.00
2019-05-23T07:44:10.542Z,12.00
2019-05-23T07:46:40.493Z,11.80
2019-05-23T07:49:10.917Z,11.90
2019-05-23T07:51:40.939Z,11.90
2019-05-23T07:54:21.633Z,11.90
2019-05-23T07:56:51.464Z,12.00
2019-05-23T07:59:21.735Z,12.00
2019-05-23T08:01:56.783Z,12.00
2019-05-23T08:04:26.820Z,12.00
2019-05-23T08:06:57.295Z,12.00
2019-05-23T08:09:27.072Z,12.00
2019-05-23T08:11:56.899Z,12.00
2019-05-23T08:14:27.144Z,12.00
2019-05-23T08:16:56.565Z,12.00
2019-05-23T08:19:26.227Z,12.00
2019-05-23T08:21:55.535Z,12.00
2019-05-23T08:24:24.876Z,12.00
2019-05-23T08:26:55.713Z,12.00
2019-05-23T08:29:26.853Z,12.00
2019-05-23T08:31:56.638Z,12.00
2019-05-23T08:34:40.800Z,11.90
2019-05-23T08:36:57.956Z,11.90
2019-05-23T08:39:28.691Z,12.00
2019-05-23T08:41:58.049Z,12.00
2019-05-23T08:44:27.633Z,12.00
2019-05-23T08:46:57.443Z,12.10
2019-05-23T08:49:27.694Z,12.00
2019-05-23T08:51:57.643Z,12.00
2019-05-23T08:54:26.837Z,12.00
2019-05-23T08:56:56.474Z,12.00
2019-05-23T08:59:26.827Z,12.10
2019-05-23T09:01:56.337Z,12.20
2019-05-23T09:04:26.316Z,12.20
2019-05-23T09:06:57.174Z,12.20
2019-05-23T09:09:30.317Z,12.20
2019-05-23T09:11:58.976Z,12.20
2019-05-23T09:14:29.071Z,12.20
2019-05-23T09:16:58.952Z,12.20
2019-05-23T09:19:28.276Z,12.20
2019-05-23T09:21:58.293Z,12.20
2019-05-23T09:24:28.670Z,12.30
2019-05-23T09:26:57.957Z,12.20
2019-05-23T09:29:27.624Z,12.20
2019-05-23T09:31:58.241Z,12.10
2019-05-23T09:34:27.727Z,12.00
2019-05-23T09:37:00.210Z,12.00
2019-05-23T09:39:29.422Z,12.10
2019-05-23T09:41:59.029Z,12.00
2019-05-23T09:44:28.952Z,12.10
2019-05-23T09:46:58.532Z,12.20
2019-05-23T09:49:28.613Z,12.20
2019-05-23T09:52:01.241Z,12.10
2019-05-23T09:54:30.055Z,12.20
2019-05-23T09:56:59.948Z,12.20
2019-05-23T09:59:30.391Z,12.30
2019-05-23T10:02:01.549Z,12.10
2019-05-23T10:04:30.793Z,12.20
2019-05-23T10:07:00.600Z,12.30
2019-05-23T10:09:30.268Z,12.30
2019-05-23T10:12:00.277Z,12.20
2019-05-23T10:14:32.969Z,12.10
2019-05-23T10:17:03.313Z,12.20
2019-05-23T10:19:32.971Z,12.10
2019-05-23T10:22:02.915Z,12.00
2019-05-23T10:24:32.165Z,12.10
2019-05-23T10:27:02.250Z,12.00
2019-05-23T10:29:31.869Z,12.10
2019-05-23T10:32:02.286Z,12.10
2019-05-23T10:34:31.629Z,12.20
2019-05-23T10:37:01.787Z,12.20
2019-05-23T10:39:32.024Z,12.20
2019-05-23T10:42:02.371Z,12.20
2019-05-23T10:44:31.881Z,12.20
2019-05-23T10:47:01.370Z,12.30
2019-05-23T10:49:31.078Z,12.30
2019-05-23T10:52:01.111Z,12.30
2019-05-23T10:54:30.389Z,12.30
2019-05-23T10:57:00.335Z,12.30
2019-05-23T10:59:30.306Z,12.30
2019-05-23T11:01:59.970Z,12.20
2019-05-23T11:04:29.888Z,12.30
2019-05-23T11:06:59.985Z,12.30
2019-05-23T11:09:37.745Z,12.30
2019-05-23T11:12:01.412Z,12.30
2019-05-23T11:14:31.404Z,12.40
2019-05-23T11:17:01.417Z,12.40
2019-05-23T11:19:31.174Z,12.40
2019-05-23T11:22:00.761Z,12.30
2019-05-23T11:24:31.071Z,12.30
2019-05-23T11:27:00.719Z,12.20
2019-05-23T11:29:30.297Z,12.30
2019-05-23T11:32:01.028Z,12.30
2019-05-23T11:34:30.842Z,12.30
2019-05-23T11:37:00.424Z,12.20
2019-05-23T11:39:30.190Z,12.30
2019-05-23T11:41:59.856Z,12.30
2019-05-23T11:44:30.278Z,12.30
2019-05-23T11:47:01.375Z,12.30
2019-05-23T11:49:31.780Z,12.30
2019-05-23T11:52:01.338Z,12.30
2019-05-23T11:54:31.227Z,12.30
2019-05-23T11:57:01.828Z,12.30
2019-05-23T11:59:31.775Z,12.30
2019-05-23T12:02:18.951Z,12.30
2019-05-23T12:04:48.513Z,12.20
2019-05-23T12:07:22.886Z,12.20
2019-05-23T12:09:52.149Z,12.20
2019-05-23T12:12:21.784Z,12.20
2019-05-23T12:14:52.038Z,12.10
2019-05-23T12:17:22.824Z,12.10
2019-05-23T12:19:52.535Z,12.10
2019-05-23T12:22:23.391Z,12.10
2019-05-23T12:24:52.771Z,12.10
2019-05-23T12:27:22.339Z,11.90
2019-05-23T12:29:52.069Z,11.90
2019-05-23T12:32:21.466Z,11.80
2019-05-23T12:35:08.504Z,11.90
2019-05-23T12:37:23.076Z,11.90
2019-05-23T12:39:54.219Z,11.90
2019-05-23T12:42:24.318Z,11.90
2019-05-23T12:44:54.166Z,11.90
2019-05-23T12:47:35.328Z,12.00
2019-05-23T12:50:08.526Z,12.00
2019-05-23T12:52:38.671Z,11.90
2019-05-23T12:55:07.904Z,11.90
2019-05-23T12:57:37.389Z,11.80
2019-05-23T13:00:12.766Z,11.80
2019-05-23T13:02:42.910Z,11.80
2019-05-23T13:05:13.383Z,11.80
2019-05-23T13:07:43.892Z,11.90
2019-05-23T13:10:14.834Z,11.90
2019-05-23T13:12:44.615Z,12.00
2019-05-23T13:15:14.980Z,12.00
2019-05-23T13:17:45.084Z,11.90
2019-05-23T13:20:14.781Z,11.90
2019-05-23T13:22:44.514Z,11.90
2019-05-23T13:25:14.568Z,11.80
2019-05-23T13:27:43.991Z,11.80
2019-05-23T13:30:14.182Z,11.90
2019-05-23T13:32:44.096Z,11.80
2019-05-23T13:35:13.922Z,11.80
2019-05-23T13:37:53.545Z,11.80
2019-05-23T13:40:15.539Z,11.80
2019-05-23T13:42:46.209Z,11.80
2019-05-23T13:45:15.899Z,11.80
2019-05-23T13:47:46.444Z,11.80
2019-05-23T13:50:16.325Z,11.80
2019-05-23T13:52:45.968Z,11.60
2019-05-23T13:55:15.674Z,11.60
2019-05-23T13:57:45.026Z,11.60
2019-05-23T14:00:16.532Z,11.60
2019-05-23T14:02:46.964Z,11.60
2019-05-23T14:05:19.213Z,11.60
2019-05-23T14:07:48.198Z,11.60
2019-05-23T14:10:18.372Z,11.40
2019-05-23T14:12:48.883Z,11.40
2019-05-23T14:15:21.706Z,11.50
2019-05-23T14:17:51.613Z,11.50
2019-05-23T14:20:22.575Z,11.50
2019-05-23T14:22:57.092Z,11.60
2019-05-23T14:25:27.428Z,11.60
2019-05-23T14:28:06.258Z,11.60
2019-05-23T14:31:01.228Z,11.60
2019-05-23T14:33:48.191Z,11.60
2019-05-23T14:36:24.763Z,11.50
2019-05-23T14:38:55.773Z,11.50
2019-05-23T14:41:43.746Z,11.60
2019-05-23T14:43:58.659Z,11.60
2019-05-23T14:46:32.411Z,11.60
2019-05-23T14:49:07.538Z,11.50
2019-05-23T14:51:53.036Z,11.40
2019-05-23T14:54:43.782Z,11.50
2019-05-23T14:57:13.695Z,11.50
2019-05-23T14:59:43.551Z,11.50
2019-05-23T15:02:19.775Z,11.60
2019-05-23T15:04:49.861Z,11.60
2019-05-23T15:07:19.421Z,11.60
2019-05-23T15:09:48.742Z,11.70
2019-05-23T15:12:18.946Z,11.90
2019-05-23T15:14:48.907Z,12.00
2019-05-23T15:17:18.620Z,11.90
2019-05-23T15:19:48.341Z,11.90
2019-05-23T15:22:17.816Z,11.90
2019-05-23T15:24:47.503Z,12.10
2019-05-23T15:27:18.050Z,12.00
2019-05-23T15:29:47.366Z,12.00
2019-05-23T15:32:17.000Z,12.00
2019-05-23T15:34:46.885Z,11.90
2019-05-23T15:37:17.663Z,12.00
2019-05-23T15:39:46.969Z,12.00
2019-05-23T15:42:16.280Z,11.90
2019-05-23T15:44:46.408Z,11.90
2019-05-23T15:47:17.635Z,12.00
2019-05-23T15:49:48.585Z,11.90
2019-05-23T15:52:39.114Z,12.00
2019-05-23T15:55:23.741Z,11.90
2019-05-23T15:57:59.439Z,11.90
2019-05-23T16:00:47.202Z,11.80
2019-05-23T16:03:31.710Z,11.80
2019-05-23T16:06:01.575Z,11.80
2019-05-23T16:08:31.440Z,11.90
2019-05-23T16:11:01.515Z,11.90
2019-05-23T16:13:31.437Z,11.90
2019-05-23T16:16:01.533Z,11.90
2019-05-23T16:18:32.322Z,11.90
2019-05-23T16:21:02.040Z,11.90
2019-05-23T16:23:32.406Z,11.80
2019-05-23T16:26:02.059Z,11.80
2019-05-23T16:28:32.144Z,11.80
2019-05-23T16:31:02.193Z,11.90
2019-05-23T16:33:32.575Z,11.80
2019-05-23T16:36:02.242Z,11.80
2019-05-23T16:38:31.565Z,11.80
2019-05-23T16:41:01.245Z,11.80
2019-05-23T16:43:30.596Z,11.80
2019-05-23T16:46:00.802Z,11.70
2019-05-23T16:48:30.774Z,11.80
2019-05-23T16:51:00.092Z,11.70
2019-05-23T16:53:29.829Z,11.80
2019-05-23T16:56:06.225Z,11.70
2019-05-23T16:58:53.847Z,11.70
2019-05-23T17:01:56.020Z,11.70
2019-05-23T17:04:24.892Z,11.70
2019-05-23T17:07:02.616Z,11.60
2019-05-23T17:09:44.583Z,11.70
2019-05-23T17:12:26.660Z,11.70
2019-05-23T17:15:04.586Z,11.70
2019-05-23T17:18:00.701Z,11.70
2019-05-23T17:20:28.585Z,11.70
2019-05-23T17:23:15.735Z,11.70
2019-05-23T17:25:57.046Z,11.70
2019-05-23T17:28:34.797Z,11.80
2019-05-23T17:31:06.680Z,11.80
2019-05-23T17:33:37.133Z,11.70
2019-05-23T17:36:07.487Z,11.80
2019-05-23T17:38:37.328Z,11.70
2019-05-23T17:41:06.561Z,11.70
2019-05-23T17:43:36.900Z,11.70
2019-05-23T17:46:06.730Z,11.70
2019-05-23T17:48:36.683Z,11.70
2019-05-23T17:51:06.371Z,11.70
2019-05-23T17:53:36.213Z,11.60
2019-05-23T17:56:05.961Z,11.70
2019-05-23T17:58:35.686Z,11.70
2019-05-23T18:01:05.547Z,11.60
2019-05-23T18:03:35.155Z,11.70
2019-05-23T18:06:05.432Z,11.70
2019-05-23T18:08:35.630Z,11.70
2019-05-23T18:11:06.685Z,11.70
2019-05-23T18:13:37.063Z,11.70
2019-05-23T18:16:07.740Z,11.70
2019-05-23T18:18:37.792Z,11.70
2019-05-23T18:21:07.861Z,11.70
2019-05-23T18:23:37.753Z,11.70
2019-05-23T18:26:07.773Z,11.70
2019-05-23T18:28:37.658Z,11.70
2019-05-23T18:31:18.747Z,11.70
2019-05-23T18:33:49.366Z,11.60
2019-05-23T18:36:19.761Z,11.70
2019-05-23T18:38:49.841Z,11.70
2019-05-23T18:41:19.992Z,11.60
2019-05-23T18:43:50.376Z,11.70
2019-05-23T18:46:29.192Z,11.60
2019-05-23T18:49:00.860Z,11.60
2019-05-23T18:51:30.876Z,11.60
2019-05-23T18:54:00.860Z,11.60
2019-05-23T18:56:31.015Z,11.60
2019-05-23T18:59:01.347Z,11.60
2019-05-23T19:01:31.094Z,11.60
2019-05-23T19:04:01.157Z,11.60
2019-05-23T19:06:31.256Z,11.60
2019-05-23T19:09:00.755Z,11.60
2019-05-23T19:11:30.609Z,11.60
2019-05-23T19:14:00.713Z,11.60
2019-05-23T19:16:30.421Z,11.60
2019-05-23T19:19:01.225Z,11.60
2019-05-23T19:21:33.248Z,11.70
2019-05-23T19:24:03.531Z,11.70
2019-05-23T19:26:34.490Z,11.60
2019-05-23T19:29:04.826Z,11.60
2019-05-23T19:31:34.475Z,11.70
2019-05-23T19:34:04.745Z,11.70
2019-05-23T19:36:34.772Z,11.60
2019-05-23T19:39:06.311Z,11.60
2019-05-23T19:41:38.158Z,11.60
2019-05-23T19:44:07.783Z,11.50
2019-05-23T19:46:37.470Z,11.50
2019-05-23T19:49:06.976Z,11.50
2019-05-23T19:51:36.669Z,11.50
2019-05-23T19:54:06.980Z,11.50
2019-05-23T19:56:37.599Z,11.50
2019-05-23T19:59:07.076Z,11.50
2019-05-23T20:01:47.064Z,11.50
2019-05-23T20:04:16.675Z,11.50
2019-05-23T20:06:46.268Z,11.40
2019-05-23T20:09:18.449Z,11.50
2019-05-23T20:11:54.608Z,11.40
2019-05-23T20:14:20.133Z,11.40
2019-05-23T20:16:49.380Z,11.40
2019-05-23T20:19:18.565Z,11.40
2019-05-23T20:21:48.422Z,11.40
2019-05-23T20:24:18.082Z,11.50
2019-05-23T20:26:48.257Z,11.40
2019-05-23T20:29:18.182Z,11.40
2019-05-23T20:31:48.796Z,11.40
2019-05-23T20:34:18.559Z,11.40
2019-05-23T20:36:48.447Z,11.40
2019-05-23T20:39:18.694Z,11.40
2019-05-23T20:41:48.379Z,11.40
2019-05-23T20:44:18.323Z,11.40
2019-05-23T20:46:47.642Z,11.40
2019-05-23T20:49:17.618Z,11.40
2019-05-23T20:51:46.857Z,11.40
2019-05-23T20:54:16.434Z,11.40
2019-05-23T20:56:46.431Z,11.40
2019-05-23T20:59:16.328Z,11.40
2019-05-23T21:01:47.031Z,11.40
2019-05-23T21:04:17.075Z,11.40
2019-05-23T21:06:47.046Z,11.40
2019-05-23T21:09:16.780Z,11.40
2019-05-23T21:11:46.372Z,11.40
2019-05-23T21:14:16.726Z,11.40
2019-05-23T21:16:46.719Z,11.40
2019-05-23T21:19:15.998Z,11.40
2019-05-23T21:21:45.937Z,11.40
2019-05-23T21:24:16.140Z,11.30
2019-05-23T21:26:45.318Z,11.30
2019-05-23T21:29:15.567Z,11.40
2019-05-23T21:31:45.850Z,11.40
2019-05-23T21:34:15.512Z,11.30
2019-05-23T21:36:45.012Z,11.30
2019-05-23T21:39:14.611Z,11.30
2019-05-23T21:41:44.157Z,11.30
2019-05-23T21:44:13.430Z,11.20
2019-05-23T21:46:42.716Z,11.30
2019-05-23T21:49:12.107Z,11.30
2019-05-23T21:51:41.782Z,11.30
2019-05-23T21:54:11.088Z,11.30
2019-05-23T21:56:41.120Z,11.30
2019-05-23T21:59:10.418Z,11.20
2019-05-23T22:02:01.709Z,11.30
2019-05-23T22:04:49.136Z,11.30
2019-05-23T22:07:18.433Z,11.30
2019-05-23T22:09:47.655Z,11.30
2019-05-23T22:12:17.859Z,11.30
2019-05-23T22:14:47.785Z,11.30
2019-05-23T22:17:19.553Z,11.30
2019-05-23T22:19:49.292Z,11.20
2019-05-23T22:22:19.178Z,11.30
2019-05-23T22:24:49.142Z,11.30
2019-05-23T22:27:19.410Z,11.30
2019-05-23T22:29:49.400Z,11.20
2019-05-23T22:32:21.098Z,11.20
2019-05-23T22:35:03.572Z,11.30
2019-05-23T22:37:33.191Z,11.20
2019-05-23T22:40:02.884Z,11.20
2019-05-23T22:42:34.314Z,11.20
2019-05-23T22:45:05.260Z,11.30
2019-05-23T22:47:34.944Z,11.20
2019-05-23T22:50:04.607Z,11.20
2019-05-23T22:52:33.875Z,11.20
2019-05-23T22:55:03.074Z,11.20
2019-05-23T22:57:33.102Z,11.20
2019-05-23T23:00:02.923Z,11.20
2019-05-23T23:02:32.485Z,11.20
2019-05-23T23:05:02.099Z,11.20
2019-05-23T23:07:32.293Z,11.20
2019-05-23T23:10:01.920Z,11.20
2019-05-23T23:12:31.897Z,11.20
2019-05-23T23:15:01.880Z,11.20
2019-05-23T23:17:31.916Z,11.20
2019-05-23T23:20:02.293Z,11.20
2019-05-23T23:22:32.139Z,11.20
2019-05-23T23:25:01.472Z,11.20
2019-05-23T23:27:31.361Z,11.20
2019-05-23T23:30:00.620Z,11.20
2019-05-23T23:32:30.548Z,11.20
2019-05-23T23:35:00.481Z,11.20
2019-05-23T23:37:29.779Z,11.20
2019-05-23T23:39:59.799Z,11.10
2019-05-23T23:42:29.638Z,11.10
2019-05-23T23:45:16.369Z,11.10
2019-05-23T23:48:03.870Z,11.10
2019-05-23T23:50:51.448Z,11.20
2019-05-23T23:53:38.537Z,11.20
2019-05-23T23:56:25.719Z,11.20
2019-05-23T23:58:54.703Z,11.20
